RYR86DZ EBCI-LFMU
Flight info
| Callsign | RYR86DZ |
|---|---|
| Flight time | 1h 26m |
| Altitude | 31000 |
| Route | CIV N872 LESDO DCT KOVIN DCT DUCRA/N0426F330 UM728 RESMI UN857 DISAK DCT DIRMO DCT ETAMO DCT ADEKA DCT MOKDI DCT MEN/N0340F190 J27 AFRIC |
| Aircraft | B738/M-SDE3FGILRWY/SB1 |
Departure
| Time | 2026-04-26 21:15 |
|---|---|
| Airport | Brussels South Charleroi Airport (EBCI) |
Arrival
| Time | 2026-04-26 22:41 |
|---|---|
| Airport | Béziers Vias airport (LFMU) |
| Time | Latitude | Longitude | Altitude | Speed | Heading |
|---|---|---|---|---|---|
| 2026-04-26 20:50 | 50.46784 | 4.46824 | 627 ft | 0 kts | 337° |
| 2026-04-26 21:04 | 50.46771 | 4.46834 | 611 ft | 4 kts | 313° |
| 2026-04-26 21:04 | 50.46761 | 4.46869 | 624 ft | 4 kts | 282° |
| 2026-04-26 21:04 | 50.46759 | 4.46880 | 623 ft | 2 kts | 284° |
| 2026-04-26 21:07 | 50.46759 | 4.46879 | 623 ft | 1 kts | 282° |
| 2026-04-26 21:07 | 50.46747 | 4.46848 | 618 ft | 5 kts | 223° |
| 2026-04-26 21:07 | 50.46724 | 4.46808 | 611 ft | 5 kts | 233° |
| 2026-04-26 21:08 | 50.46695 | 4.46776 | 616 ft | 6 kts | 194° |
| 2026-04-26 21:08 | 50.46653 | 4.46792 | 622 ft | 6 kts | 160° |
| 2026-04-26 21:08 | 50.46612 | 4.46786 | 612 ft | 6 kts | 211° |
| 2026-04-26 21:08 | 50.46587 | 4.46733 | 619 ft | 6 kts | 243° |
| 2026-04-26 21:09 | 50.46563 | 4.46651 | 623 ft | 11 kts | 245° |
| 2026-04-26 21:09 | 50.46524 | 4.46520 | 620 ft | 15 kts | 245° |
| 2026-04-26 21:09 | 50.46480 | 4.46366 | 626 ft | 16 kts | 246° |
| 2026-04-26 21:09 | 50.46433 | 4.46208 | 619 ft | 17 kts | 245° |
| 2026-04-26 21:10 | 50.46383 | 4.46034 | 621 ft | 18 kts | 246° |
| 2026-04-26 21:10 | 50.46331 | 4.45853 | 620 ft | 18 kts | 245° |
| 2026-04-26 21:10 | 50.46297 | 4.45737 | 623 ft | 17 kts | 245° |
| 2026-04-26 21:10 | 50.46231 | 4.45509 | 623 ft | 18 kts | 245° |
| 2026-04-26 21:11 | 50.46195 | 4.45387 | 622 ft | 20 kts | 245° |
| 2026-04-26 21:11 | 50.46136 | 4.45181 | 631 ft | 21 kts | 245° |
| 2026-04-26 21:11 | 50.46059 | 4.44913 | 634 ft | 20 kts | 245° |
| 2026-04-26 21:11 | 50.46001 | 4.44718 | 629 ft | 19 kts | 245° |
| 2026-04-26 21:12 | 50.45946 | 4.44529 | 633 ft | 19 kts | 244° |
| 2026-04-26 21:12 | 50.45876 | 4.44362 | 636 ft | 18 kts | 231° |
| 2026-04-26 21:12 | 50.45826 | 4.44260 | 630 ft | 18 kts | 232° |
| 2026-04-26 21:12 | 50.45751 | 4.44110 | 633 ft | 17 kts | 232° |
| 2026-04-26 21:13 | 50.45686 | 4.43982 | 633 ft | 13 kts | 226° |
| 2026-04-26 21:13 | 50.45616 | 4.43892 | 635 ft | 13 kts | 216° |
| 2026-04-26 21:13 | 50.45562 | 4.43790 | 634 ft | 13 kts | 263° |
| 2026-04-26 21:13 | 50.45561 | 4.43701 | 634 ft | 2 kts | 234° |
| 2026-04-26 21:14 | 50.45546 | 4.43695 | 635 ft | 2 kts | 176° |
| 2026-04-26 21:14 | 50.45537 | 4.43713 | 638 ft | 2 kts | 104° |
| 2026-04-26 21:14 | 50.45542 | 4.43752 | 634 ft | 7 kts | 67° |
| 2026-04-26 21:14 | 50.45596 | 4.43939 | 637 ft | 45 kts | 65° |
| 2026-04-26 21:15 | 50.45827 | 4.44731 | 636 ft | 113 kts | 65° |
| 2026-04-26 21:15 | 50.46237 | 4.46133 | 646 ft | 165 kts | 65° |
| 2026-04-26 21:15 | 50.46732 | 4.47781 | 1365 ft | 162 kts | 64° |
| 2026-04-26 21:15 | 50.47245 | 4.49310 | 2237 ft | 162 kts | 54° |
| 2026-04-26 21:16 | 50.48190 | 4.50489 | 2645 ft | 187 kts | 26° |
| 2026-04-26 21:16 | 50.49423 | 4.51380 | 3117 ft | 202 kts | 32° |
| 2026-04-26 21:16 | 50.50524 | 4.52888 | 3367 ft | 223 kts | 53° |
| 2026-04-26 21:16 | 50.51353 | 4.55033 | 3689 ft | 241 kts | 61° |
| 2026-04-26 21:17 | 50.52217 | 4.57375 | 4238 ft | 255 kts | 57° |
| 2026-04-26 21:17 | 50.53287 | 4.59658 | 4920 ft | 263 kts | 44° |
| 2026-04-26 21:17 | 50.54869 | 4.61115 | 5599 ft | 270 kts | 12° |
| 2026-04-26 21:17 | 50.56715 | 4.60959 | 6419 ft | 271 kts | 339° |
| 2026-04-26 21:18 | 50.58257 | 4.59262 | 7059 ft | 276 kts | 309° |
| 2026-04-26 21:18 | 50.59158 | 4.56664 | 8052 ft | 266 kts | 288° |
| 2026-04-26 21:18 | 50.59436 | 4.53767 | 8773 ft | 273 kts | 270° |
| 2026-04-26 21:18 | 50.59333 | 4.50791 | 9430 ft | 280 kts | 267° |
| 2026-04-26 21:19 | 50.59217 | 4.47709 | 10152 ft | 284 kts | 268° |
| 2026-04-26 21:19 | 50.59112 | 4.44576 | 10678 ft | 295 kts | 268° |
| 2026-04-26 21:19 | 50.59010 | 4.41222 | 10842 ft | 318 kts | 268° |
| 2026-04-26 21:19 | 50.58908 | 4.37654 | 11225 ft | 331 kts | 268° |
| 2026-04-26 21:20 | 50.58808 | 4.34011 | 11881 ft | 335 kts | 268° |
| 2026-04-26 21:20 | 50.58709 | 4.30334 | 12656 ft | 337 kts | 268° |
| 2026-04-26 21:20 | 50.58611 | 4.26644 | 13435 ft | 339 kts | 268° |
| 2026-04-26 21:20 | 50.58512 | 4.22921 | 14189 ft | 342 kts | 268° |
| 2026-04-26 21:21 | 50.58413 | 4.19211 | 14857 ft | 345 kts | 268° |
| 2026-04-26 21:21 | 50.58312 | 4.15419 | 15551 ft | 349 kts | 268° |
| 2026-04-26 21:21 | 50.58207 | 4.11589 | 16244 ft | 352 kts | 268° |
| 2026-04-26 21:21 | 50.58101 | 4.07721 | 16936 ft | 356 kts | 268° |
| 2026-04-26 21:22 | 50.57992 | 4.03819 | 17617 ft | 359 kts | 268° |
| 2026-04-26 21:22 | 50.57882 | 3.99868 | 18286 ft | 363 kts | 267° |
| 2026-04-26 21:22 | 50.57769 | 3.95886 | 18938 ft | 365 kts | 267° |
| 2026-04-26 21:23 | 50.57333 | 3.87892 | 20125 ft | 371 kts | 253° |
| 2026-04-26 21:23 | 50.56151 | 3.84274 | 20714 ft | 376 kts | 234° |
| 2026-04-26 21:23 | 50.54290 | 3.81352 | 21306 ft | 383 kts | 217° |
| 2026-04-26 21:23 | 50.51967 | 3.79395 | 21852 ft | 389 kts | 207° |
| 2026-04-26 21:24 | 50.49423 | 3.77677 | 22383 ft | 393 kts | 205° |
| 2026-04-26 21:24 | 50.46884 | 3.76021 | 22898 ft | 397 kts | 205° |
| 2026-04-26 21:24 | 50.44358 | 3.74363 | 23418 ft | 401 kts | 206° |
| 2026-04-26 21:24 | 50.41782 | 3.72645 | 23921 ft | 404 kts | 206° |
| 2026-04-26 21:25 | 50.39197 | 3.70898 | 24355 ft | 406 kts | 206° |
| 2026-04-26 21:25 | 50.36595 | 3.69130 | 24801 ft | 409 kts | 206° |
| 2026-04-26 21:25 | 50.33986 | 3.67358 | 25311 ft | 408 kts | 206° |
| 2026-04-26 21:25 | 50.31373 | 3.65587 | 25741 ft | 411 kts | 206° |
| 2026-04-26 21:26 | 50.28739 | 3.63805 | 26119 ft | 415 kts | 206° |
| 2026-04-26 21:26 | 50.26080 | 3.62008 | 26508 ft | 418 kts | 206° |
| 2026-04-26 21:26 | 50.23405 | 3.60202 | 26914 ft | 420 kts | 206° |
| 2026-04-26 21:26 | 50.20717 | 3.58389 | 27314 ft | 422 kts | 206° |
| 2026-04-26 21:27 | 50.18009 | 3.56567 | 27698 ft | 425 kts | 206° |
| 2026-04-26 21:27 | 50.15293 | 3.54744 | 28080 ft | 427 kts | 206° |
| 2026-04-26 21:27 | 50.12551 | 3.52909 | 28456 ft | 429 kts | 206° |
| 2026-04-26 21:27 | 50.09811 | 3.51078 | 28933 ft | 428 kts | 206° |
| 2026-04-26 21:28 | 50.07075 | 3.49251 | 29478 ft | 426 kts | 206° |
| 2026-04-26 21:28 | 50.04351 | 3.47435 | 30002 ft | 425 kts | 206° |
| 2026-04-26 21:28 | 50.01642 | 3.45628 | 30441 ft | 425 kts | 206° |
| 2026-04-26 21:28 | 49.98921 | 3.43817 | 30838 ft | 424 kts | 206° |
| 2026-04-26 21:29 | 49.96210 | 3.42013 | 31254 ft | 423 kts | 206° |
| 2026-04-26 21:29 | 49.93510 | 3.40219 | 31675 ft | 422 kts | 206° |
| 2026-04-26 21:29 | 49.90815 | 3.38431 | 32053 ft | 421 kts | 207° |
| 2026-04-26 21:29 | 49.88118 | 3.36642 | 32426 ft | 421 kts | 207° |
| 2026-04-26 21:30 | 49.85430 | 3.34862 | 32824 ft | 420 kts | 207° |
| 2026-04-26 21:30 | 49.82747 | 3.33088 | 33216 ft | 419 kts | 207° |
| 2026-04-26 21:30 | 49.77323 | 3.29501 | 33254 ft | 425 kts | 207° |
| 2026-04-26 21:31 | 49.71931 | 3.25939 | 33239 ft | 417 kts | 207° |
| 2026-04-26 21:31 | 49.66598 | 3.22420 | 33242 ft | 416 kts | 207° |
| 2026-04-26 21:32 | 49.61268 | 3.18909 | 33248 ft | 416 kts | 207° |
| 2026-04-26 21:32 | 49.55960 | 3.15422 | 33246 ft | 417 kts | 207° |
| 2026-04-26 21:33 | 49.50618 | 3.11922 | 33256 ft | 417 kts | 207° |
| 2026-04-26 21:33 | 49.45558 | 3.07727 | 33267 ft | 411 kts | 217° |
| 2026-04-26 21:34 | 49.40817 | 3.02813 | 33248 ft | 411 kts | 218° |
| 2026-04-26 21:34 | 49.36077 | 2.97920 | 33243 ft | 411 kts | 217° |
| 2026-04-26 21:35 | 49.31304 | 2.93065 | 33245 ft | 411 kts | 217° |
| 2026-04-26 21:35 | 49.26530 | 2.88246 | 33230 ft | 411 kts | 217° |
| 2026-04-26 21:36 | 49.21759 | 2.83445 | 33239 ft | 410 kts | 217° |
| 2026-04-26 21:36 | 49.16984 | 2.78651 | 33245 ft | 410 kts | 217° |
| 2026-04-26 21:37 | 49.12215 | 2.73873 | 33233 ft | 410 kts | 217° |
| 2026-04-26 21:37 | 49.07454 | 2.69113 | 33238 ft | 409 kts | 217° |
| 2026-04-26 21:38 | 49.02690 | 2.64360 | 33226 ft | 409 kts | 217° |
| 2026-04-26 21:38 | 48.97933 | 2.59626 | 33244 ft | 408 kts | 217° |
| 2026-04-26 21:39 | 48.93180 | 2.54908 | 33234 ft | 408 kts | 217° |
| 2026-04-26 21:39 | 48.88463 | 2.50233 | 33238 ft | 407 kts | 217° |
| 2026-04-26 21:40 | 48.83719 | 2.45540 | 33232 ft | 407 kts | 217° |
| 2026-04-26 21:40 | 48.78974 | 2.40856 | 33237 ft | 407 kts | 217° |
| 2026-04-26 21:41 | 48.74228 | 2.36182 | 33244 ft | 407 kts | 217° |
| 2026-04-26 21:41 | 48.69482 | 2.31517 | 33243 ft | 407 kts | 217° |
| 2026-04-26 21:42 | 48.64733 | 2.26859 | 33233 ft | 407 kts | 217° |
| 2026-04-26 21:42 | 48.59985 | 2.22214 | 33228 ft | 407 kts | 217° |
| 2026-04-26 21:43 | 48.54875 | 2.18472 | 33233 ft | 414 kts | 200° |
| 2026-04-26 21:43 | 48.49216 | 2.16613 | 33226 ft | 417 kts | 195° |
| 2026-04-26 21:44 | 48.43529 | 2.14872 | 33221 ft | 417 kts | 195° |
| 2026-04-26 21:44 | 48.37862 | 2.13070 | 33213 ft | 416 kts | 195° |
| 2026-04-26 21:45 | 48.32253 | 2.11268 | 33214 ft | 414 kts | 195° |
| 2026-04-26 21:45 | 48.26518 | 2.10326 | 33213 ft | 419 kts | 180° |
| 2026-04-26 21:46 | 48.20723 | 2.11553 | 33212 ft | 421 kts | 175° |
| 2026-04-26 21:46 | 48.14947 | 2.12859 | 33207 ft | 419 kts | 175° |
| 2026-04-26 21:47 | 48.09163 | 2.13676 | 33216 ft | 417 kts | 182° |
| 2026-04-26 21:47 | 48.03357 | 2.13924 | 33218 ft | 418 kts | 183° |
| 2026-04-26 21:48 | 47.97521 | 2.14160 | 33216 ft | 421 kts | 182° |
| 2026-04-26 21:48 | 47.91645 | 2.14463 | 33215 ft | 424 kts | 182° |
| 2026-04-26 21:49 | 47.85737 | 2.14800 | 33215 ft | 426 kts | 182° |
| 2026-04-26 21:49 | 47.79797 | 2.15147 | 33206 ft | 427 kts | 182° |
| 2026-04-26 21:50 | 47.74863 | 2.15434 | 33196 ft | 427 kts | 181° |
| 2026-04-26 21:50 | 47.67919 | 2.15836 | 33205 ft | 427 kts | 181° |
| 2026-04-26 21:51 | 47.61987 | 2.16178 | 33205 ft | 427 kts | 181° |
| 2026-04-26 21:51 | 47.56055 | 2.16519 | 33196 ft | 427 kts | 181° |
| 2026-04-26 21:52 | 47.50123 | 2.16859 | 33204 ft | 426 kts | 181° |
| 2026-04-26 21:52 | 47.44208 | 2.17197 | 33204 ft | 426 kts | 181° |
| 2026-04-26 21:53 | 47.38326 | 2.17532 | 33205 ft | 425 kts | 181° |
| 2026-04-26 21:53 | 47.32413 | 2.17869 | 33194 ft | 425 kts | 181° |
| 2026-04-26 21:54 | 47.26510 | 2.18204 | 33203 ft | 425 kts | 181° |
| 2026-04-26 21:54 | 47.20597 | 2.18539 | 33197 ft | 425 kts | 181° |
| 2026-04-26 21:55 | 47.14675 | 2.18874 | 33186 ft | 426 kts | 181° |
| 2026-04-26 21:55 | 47.08764 | 2.19550 | 33184 ft | 430 kts | 171° |
| 2026-04-26 21:56 | 47.03101 | 2.22449 | 33194 ft | 434 kts | 160° |
| 2026-04-26 21:56 | 46.97520 | 2.25852 | 33189 ft | 434 kts | 160° |
| 2026-04-26 21:57 | 46.91918 | 2.29175 | 33186 ft | 435 kts | 160° |
| 2026-04-26 21:57 | 46.86300 | 2.32457 | 33197 ft | 435 kts | 160° |
| 2026-04-26 21:58 | 46.80918 | 2.36529 | 33208 ft | 438 kts | 149° |
| 2026-04-26 21:58 | 46.75840 | 2.41451 | 33190 ft | 438 kts | 148° |
| 2026-04-26 21:59 | 46.70769 | 2.46372 | 33195 ft | 438 kts | 148° |
| 2026-04-26 21:59 | 46.65744 | 2.51180 | 33190 ft | 438 kts | 148° |
| 2026-04-26 22:00 | 46.60644 | 2.56018 | 33202 ft | 438 kts | 148° |
| 2026-04-26 22:00 | 46.55538 | 2.60842 | 33201 ft | 438 kts | 148° |
| 2026-04-26 22:01 | 46.50429 | 2.65660 | 33194 ft | 438 kts | 148° |
| 2026-04-26 22:01 | 46.45318 | 2.70470 | 33193 ft | 438 kts | 148° |
| 2026-04-26 22:02 | 46.41066 | 2.74465 | 33182 ft | 438 kts | 148° |
| 2026-04-26 22:02 | 46.35118 | 2.80039 | 33193 ft | 438 kts | 148° |
| 2026-04-26 22:03 | 46.29966 | 2.84855 | 33198 ft | 438 kts | 148° |
| 2026-04-26 22:03 | 46.24869 | 2.89610 | 33184 ft | 439 kts | 148° |
| 2026-04-26 22:04 | 46.19739 | 2.94385 | 33193 ft | 439 kts | 148° |
| 2026-04-26 22:04 | 46.14608 | 2.99149 | 33179 ft | 439 kts | 148° |
| 2026-04-26 22:05 | 46.09479 | 3.03902 | 33189 ft | 438 kts | 147° |
| 2026-04-26 22:05 | 46.04343 | 3.08652 | 33187 ft | 439 kts | 147° |
| 2026-04-26 22:06 | 45.99206 | 3.13391 | 33185 ft | 438 kts | 148° |
| 2026-04-26 22:06 | 45.93759 | 3.17197 | 33197 ft | 436 kts | 166° |
| 2026-04-26 22:07 | 45.87760 | 3.18097 | 33199 ft | 434 kts | 182° |
| 2026-04-26 22:07 | 45.82727 | 3.17966 | 33184 ft | 435 kts | 182° |
| 2026-04-26 22:08 | 45.76669 | 3.17796 | 33187 ft | 436 kts | 182° |
| 2026-04-26 22:08 | 45.70593 | 3.17680 | 33174 ft | 437 kts | 181° |
| 2026-04-26 22:09 | 45.64501 | 3.17595 | 33198 ft | 438 kts | 181° |
| 2026-04-26 22:09 | 45.58399 | 3.17516 | 33198 ft | 439 kts | 181° |
| 2026-04-26 22:10 | 45.52285 | 3.17437 | 33198 ft | 440 kts | 181° |
| 2026-04-26 22:10 | 45.46167 | 3.17357 | 33202 ft | 440 kts | 181° |
| 2026-04-26 22:11 | 45.40036 | 3.17277 | 33200 ft | 441 kts | 181° |
| 2026-04-26 22:11 | 45.33905 | 3.17196 | 33198 ft | 441 kts | 181° |
| 2026-04-26 22:12 | 45.27769 | 3.17116 | 33204 ft | 441 kts | 181° |
| 2026-04-26 22:12 | 45.21701 | 3.17037 | 33189 ft | 433 kts | 181° |
| 2026-04-26 22:13 | 45.18674 | 3.16999 | 32901 ft | 426 kts | 181° |
| 2026-04-26 22:13 | 45.15734 | 3.16961 | 32644 ft | 419 kts | 181° |
| 2026-04-26 22:13 | 45.12865 | 3.16923 | 32274 ft | 417 kts | 180° |
| 2026-04-26 22:13 | 45.09980 | 3.16885 | 31914 ft | 413 kts | 180° |
| 2026-04-26 22:14 | 45.07116 | 3.16848 | 31542 ft | 410 kts | 180° |
| 2026-04-26 22:14 | 45.04268 | 3.16811 | 31192 ft | 407 kts | 180° |
| 2026-04-26 22:14 | 45.01446 | 3.16774 | 30844 ft | 405 kts | 180° |
| 2026-04-26 22:14 | 44.98636 | 3.16738 | 30492 ft | 403 kts | 180° |
| 2026-04-26 22:15 | 44.95843 | 3.16702 | 30121 ft | 400 kts | 180° |
| 2026-04-26 22:15 | 44.93065 | 3.16664 | 29721 ft | 398 kts | 180° |
| 2026-04-26 22:15 | 44.90308 | 3.16624 | 29328 ft | 395 kts | 180° |
| 2026-04-26 22:15 | 44.87562 | 3.16584 | 28906 ft | 393 kts | 180° |
| 2026-04-26 22:16 | 44.84828 | 3.16544 | 28677 ft | 396 kts | 180° |
| 2026-04-26 22:16 | 44.82005 | 3.16504 | 28446 ft | 415 kts | 180° |
| 2026-04-26 22:16 | 44.79067 | 3.16463 | 28205 ft | 428 kts | 180° |
| 2026-04-26 22:16 | 44.76080 | 3.16420 | 27931 ft | 429 kts | 180° |
| 2026-04-26 22:17 | 44.73109 | 3.16376 | 27657 ft | 426 kts | 180° |
| 2026-04-26 22:17 | 44.70152 | 3.16334 | 27381 ft | 423 kts | 180° |
| 2026-04-26 22:17 | 44.67217 | 3.16291 | 27135 ft | 421 kts | 180° |
| 2026-04-26 22:17 | 44.64296 | 3.16250 | 26870 ft | 418 kts | 180° |
| 2026-04-26 22:18 | 44.61405 | 3.16166 | 26480 ft | 414 kts | 184° |
| 2026-04-26 22:18 | 44.58579 | 3.15564 | 26060 ft | 410 kts | 194° |
| 2026-04-26 22:18 | 44.55829 | 3.14581 | 25660 ft | 406 kts | 195° |
| 2026-04-26 22:18 | 44.53102 | 3.13569 | 25229 ft | 404 kts | 195° |
| 2026-04-26 22:19 | 44.50392 | 3.12564 | 24808 ft | 402 kts | 195° |
| 2026-04-26 22:19 | 44.47699 | 3.11578 | 24388 ft | 399 kts | 195° |
| 2026-04-26 22:19 | 44.45015 | 3.10610 | 23948 ft | 398 kts | 194° |
| 2026-04-26 22:19 | 44.42339 | 3.09655 | 23504 ft | 396 kts | 194° |
| 2026-04-26 22:20 | 44.39681 | 3.08712 | 23033 ft | 393 kts | 194° |
| 2026-04-26 22:20 | 44.37034 | 3.07776 | 22593 ft | 390 kts | 194° |
| 2026-04-26 22:20 | 44.34409 | 3.06850 | 22144 ft | 387 kts | 194° |
| 2026-04-26 22:20 | 44.31839 | 3.05945 | 21739 ft | 384 kts | 194° |
| 2026-04-26 22:21 | 44.29226 | 3.05024 | 21318 ft | 381 kts | 194° |
| 2026-04-26 22:21 | 44.26662 | 3.04122 | 20920 ft | 379 kts | 194° |
| 2026-04-26 22:21 | 44.24149 | 3.03238 | 20524 ft | 376 kts | 194° |
| 2026-04-26 22:21 | 44.21589 | 3.02339 | 20119 ft | 373 kts | 194° |
| 2026-04-26 22:22 | 44.19110 | 3.01468 | 19725 ft | 371 kts | 194° |
| 2026-04-26 22:22 | 44.16581 | 3.00581 | 19321 ft | 369 kts | 194° |
| 2026-04-26 22:22 | 44.14128 | 2.99721 | 18933 ft | 367 kts | 194° |
| 2026-04-26 22:22 | 44.11625 | 2.98845 | 18532 ft | 365 kts | 194° |
| 2026-04-26 22:23 | 44.09164 | 2.97983 | 18070 ft | 364 kts | 194° |
| 2026-04-26 22:23 | 44.06718 | 2.97126 | 17654 ft | 361 kts | 194° |
| 2026-04-26 22:23 | 44.04291 | 2.96276 | 17245 ft | 358 kts | 194° |
| 2026-04-26 22:23 | 44.01917 | 2.95445 | 16848 ft | 356 kts | 194° |
| 2026-04-26 22:24 | 43.99527 | 2.94609 | 16461 ft | 353 kts | 194° |
| 2026-04-26 22:24 | 43.97158 | 2.93781 | 16072 ft | 350 kts | 194° |
| 2026-04-26 22:24 | 43.94801 | 2.92958 | 15689 ft | 348 kts | 194° |
| 2026-04-26 22:24 | 43.92462 | 2.92142 | 15309 ft | 346 kts | 194° |
| 2026-04-26 22:25 | 43.90138 | 2.91331 | 14926 ft | 344 kts | 194° |
| 2026-04-26 22:25 | 43.87824 | 2.90525 | 14551 ft | 342 kts | 194° |
| 2026-04-26 22:25 | 43.85525 | 2.89724 | 14173 ft | 340 kts | 194° |
| 2026-04-26 22:25 | 43.83239 | 2.88929 | 13772 ft | 338 kts | 194° |
| 2026-04-26 22:26 | 43.80963 | 2.88138 | 13359 ft | 336 kts | 194° |
| 2026-04-26 22:26 | 43.78681 | 2.87513 | 12946 ft | 334 kts | 182° |
| 2026-04-26 22:26 | 43.76410 | 2.88033 | 12649 ft | 329 kts | 160° |
| 2026-04-26 22:26 | 43.74418 | 2.89536 | 12330 ft | 325 kts | 147° |
| 2026-04-26 22:27 | 43.72552 | 2.91277 | 11964 ft | 323 kts | 146° |
| 2026-04-26 22:27 | 43.70711 | 2.93036 | 11599 ft | 321 kts | 146° |
| 2026-04-26 22:27 | 43.68870 | 2.94793 | 11231 ft | 320 kts | 146° |
| 2026-04-26 22:27 | 43.67041 | 2.96525 | 10867 ft | 318 kts | 146° |
| 2026-04-26 22:28 | 43.65220 | 2.98238 | 10627 ft | 313 kts | 147° |
| 2026-04-26 22:28 | 43.63445 | 2.99900 | 10485 ft | 304 kts | 147° |
| 2026-04-26 22:28 | 43.61714 | 3.01515 | 10329 ft | 296 kts | 147° |
| 2026-04-26 22:28 | 43.60029 | 3.03083 | 10196 ft | 288 kts | 147° |
| 2026-04-26 22:29 | 43.58380 | 3.04615 | 9925 ft | 285 kts | 147° |
| 2026-04-26 22:29 | 43.56743 | 3.06134 | 9633 ft | 283 kts | 147° |
| 2026-04-26 22:29 | 43.55112 | 3.07646 | 9340 ft | 282 kts | 147° |
| 2026-04-26 22:29 | 43.53488 | 3.09153 | 9026 ft | 281 kts | 146° |
| 2026-04-26 22:30 | 43.51869 | 3.10651 | 8734 ft | 280 kts | 146° |
| 2026-04-26 22:30 | 43.50258 | 3.12141 | 8437 ft | 279 kts | 146° |
| 2026-04-26 22:30 | 43.48652 | 3.13625 | 8147 ft | 277 kts | 146° |
| 2026-04-26 22:30 | 43.47054 | 3.15102 | 7863 ft | 276 kts | 146° |
| 2026-04-26 22:31 | 43.45459 | 3.16573 | 7572 ft | 275 kts | 146° |
| 2026-04-26 22:31 | 43.43873 | 3.18035 | 7336 ft | 272 kts | 146° |
| 2026-04-26 22:31 | 43.42321 | 3.19464 | 7211 ft | 265 kts | 146° |
| 2026-04-26 22:31 | 43.40811 | 3.20854 | 7088 ft | 258 kts | 146° |
| 2026-04-26 22:32 | 43.39340 | 3.22208 | 6980 ft | 250 kts | 146° |
| 2026-04-26 22:32 | 43.37914 | 3.23520 | 6873 ft | 243 kts | 146° |
| 2026-04-26 22:32 | 43.36529 | 3.24792 | 6765 ft | 236 kts | 146° |
| 2026-04-26 22:32 | 43.35186 | 3.26025 | 6563 ft | 229 kts | 146° |
| 2026-04-26 22:33 | 43.33858 | 3.27200 | 6303 ft | 223 kts | 153° |
| 2026-04-26 22:33 | 43.31002 | 3.26811 | 5987 ft | 214 kts | 211° |
| 2026-04-26 22:33 | 43.29756 | 3.25687 | 5857 ft | 215 kts | 216° |
| 2026-04-26 22:34 | 43.28524 | 3.24520 | 5701 ft | 216 kts | 216° |
| 2026-04-26 22:34 | 43.27279 | 3.23351 | 5472 ft | 218 kts | 215° |
| 2026-04-26 22:34 | 43.26037 | 3.22198 | 5271 ft | 212 kts | 215° |
| 2026-04-26 22:34 | 43.24834 | 3.21069 | 5120 ft | 208 kts | 220° |
| 2026-04-26 22:35 | 43.24008 | 3.19497 | 4929 ft | 205 kts | 257° |
| 2026-04-26 22:35 | 43.24006 | 3.17575 | 4761 ft | 202 kts | 284° |
| 2026-04-26 22:35 | 43.24360 | 3.15700 | 4551 ft | 205 kts | 286° |
| 2026-04-26 22:35 | 43.24726 | 3.13802 | 4330 ft | 207 kts | 287° |
| 2026-04-26 22:36 | 43.25285 | 3.12027 | 4074 ft | 201 kts | 313° |
| 2026-04-26 22:36 | 43.26419 | 3.11049 | 3907 ft | 190 kts | 345° |
| 2026-04-26 22:36 | 43.27704 | 3.10925 | 3750 ft | 187 kts | 4° |
| 2026-04-26 22:36 | 43.28999 | 3.11057 | 3549 ft | 188 kts | 4° |
| 2026-04-26 22:37 | 43.30310 | 3.11195 | 3337 ft | 190 kts | 4° |
| 2026-04-26 22:37 | 43.31617 | 3.11334 | 3126 ft | 186 kts | 5° |
| 2026-04-26 22:37 | 43.32803 | 3.11891 | 2895 ft | 180 kts | 41° |
| 2026-04-26 22:37 | 43.33436 | 3.13315 | 2746 ft | 179 kts | 78° |
| 2026-04-26 22:38 | 43.33475 | 3.15011 | 2593 ft | 177 kts | 93° |
| 2026-04-26 22:38 | 43.33388 | 3.16699 | 2395 ft | 176 kts | 95° |
| 2026-04-26 22:38 | 43.33293 | 3.18367 | 2206 ft | 174 kts | 95° |
| 2026-04-26 22:38 | 43.33200 | 3.20015 | 2039 ft | 173 kts | 95° |
| 2026-04-26 22:39 | 43.33105 | 3.21666 | 1810 ft | 174 kts | 95° |
| 2026-04-26 22:39 | 43.33012 | 3.23315 | 1581 ft | 171 kts | 95° |
| 2026-04-26 22:39 | 43.32923 | 3.24912 | 1361 ft | 163 kts | 95° |
| 2026-04-26 22:39 | 43.32840 | 3.26410 | 1183 ft | 150 kts | 95° |
| 2026-04-26 22:40 | 43.32760 | 3.27843 | 973 ft | 149 kts | 94° |
| 2026-04-26 22:40 | 43.32678 | 3.29258 | 778 ft | 148 kts | 94° |
| 2026-04-26 22:40 | 43.32601 | 3.30660 | 600 ft | 147 kts | 94° |
| 2026-04-26 22:40 | 43.32528 | 3.32059 | 403 ft | 147 kts | 93° |
| 2026-04-26 22:41 | 43.32453 | 3.33445 | 219 ft | 144 kts | 94° |
| 2026-04-26 22:41 | 43.32376 | 3.34790 | 62 ft | 136 kts | 93° |
| 2026-04-26 22:41 | 43.32326 | 3.35692 | 52 ft | 48 kts | 94° |
| 2026-04-26 22:41 | 43.32304 | 3.36102 | 48 ft | 38 kts | 95° |
| 2026-04-26 22:42 | 43.32286 | 3.36425 | 51 ft | 22 kts | 94° |
| 2026-04-26 22:42 | 43.32277 | 3.36568 | 49 ft | 11 kts | 100° |
| 2026-04-26 22:42 | 43.32265 | 3.36669 | 47 ft | 11 kts | 111° |
| 2026-04-26 22:42 | 43.32253 | 3.36727 | 51 ft | 5 kts | 64° |
| 2026-04-26 22:43 | 43.32274 | 3.36720 | 50 ft | 4 kts | 287° |
| 2026-04-26 22:43 | 43.32273 | 3.36662 | 50 ft | 10 kts | 270° |
| 2026-04-26 22:43 | 43.32279 | 3.36531 | 50 ft | 15 kts | 274° |
| 2026-04-26 22:43 | 43.32287 | 3.36389 | 51 ft | 15 kts | 276° |
| 2026-04-26 22:44 | 43.32296 | 3.36241 | 50 ft | 17 kts | 274° |
| 2026-04-26 22:44 | 43.32304 | 3.36064 | 49 ft | 20 kts | 274° |
| 2026-04-26 22:44 | 43.32316 | 3.35858 | 53 ft | 23 kts | 274° |
| 2026-04-26 22:44 | 43.32328 | 3.35628 | 52 ft | 24 kts | 274° |
| 2026-04-26 22:45 | 43.32340 | 3.35418 | 56 ft | 13 kts | 274° |
| 2026-04-26 22:45 | 43.32317 | 3.35339 | 58 ft | 7 kts | 208° |
| 2026-04-26 22:45 | 43.32269 | 3.35331 | 58 ft | 7 kts | 184° |
| 2026-04-26 22:45 | 43.32219 | 3.35326 | 56 ft | 8 kts | 184° |
| 2026-04-26 22:46 | 43.32187 | 3.35311 | 52 ft | 4 kts | 228° |
| 2026-04-26 22:46 | 43.32182 | 3.35274 | 52 ft | 4 kts | 270° |
| 2026-04-26 22:46 | 43.32182 | 3.35237 | 59 ft | 4 kts | 262° |
| 2026-04-26 22:46 | 43.32163 | 3.35219 | 57 ft | 4 kts | 165° |
| 2026-04-26 22:47 | 43.32143 | 3.35247 | 55 ft | 4 kts | 129° |
| 2026-04-26 22:47 | 43.32140 | 3.35252 | 56 ft | 0 kts | 129° |